sensor_id;sensor_type;location;lat;lon;timestamp;pressure;altitude;pressure_sealevel;temperature;humidity
11440;BME280;5776;51.814;4.510;2023-05-14T00:01:40;102118.13;;;15.56;98.61
11440;BME280;5776;51.814;4.510;2023-05-14T00:04:06;102113.25;;;15.53;98.60
11440;BME280;5776;51.814;4.510;2023-05-14T00:06:33;102109.91;;;15.56;98.67
11440;BME280;5776;51.814;4.510;2023-05-14T00:08:59;102107.53;;;15.49;98.54
11440;BME280;5776;51.814;4.510;2023-05-14T00:11:25;102102.56;;;15.51;98.43
11440;BME280;5776;51.814;4.510;2023-05-14T00:13:51;102104.50;;;15.51;98.14
11440;BME280;5776;51.814;4.510;2023-05-14T00:16:17;102106.97;;;15.52;98.94
11440;BME280;5776;51.814;4.510;2023-05-14T00:18:43;102105.31;;;15.51;97.88
11440;BME280;5776;51.814;4.510;2023-05-14T00:21:08;102099.09;;;15.46;98.25
11440;BME280;5776;51.814;4.510;2023-05-14T00:23:35;102099.63;;;15.48;98.40
11440;BME280;5776;51.814;4.510;2023-05-14T00:26:00;102100.16;;;15.45;97.85
11440;BME280;5776;51.814;4.510;2023-05-14T00:28:26;102097.00;;;15.38;99.14
11440;BME280;5776;51.814;4.510;2023-05-14T00:30:52;102092.00;;;15.40;98.21
11440;BME280;5776;51.814;4.510;2023-05-14T00:33:18;102095.88;;;15.39;99.72
11440;BME280;5776;51.814;4.510;2023-05-14T00:35:44;102092.59;;;15.37;98.47
11440;BME280;5776;51.814;4.510;2023-05-14T00:38:10;102091.78;;;15.36;99.01
11440;BME280;5776;51.814;4.510;2023-05-14T00:40:41;102085.25;;;15.32;99.35
11440;BME280;5776;51.814;4.510;2023-05-14T00:43:11;102089.38;;;15.29;99.39
11440;BME280;5776;51.814;4.510;2023-05-14T00:45:37;102083.97;;;15.24;99.86
11440;BME280;5776;51.814;4.510;2023-05-14T00:48:04;102081.53;;;15.23;99.66
11440;BME280;5776;51.814;4.510;2023-05-14T00:50:30;102078.81;;;15.23;99.84
11440;BME280;5776;51.814;4.510;2023-05-14T00:52:56;102079.06;;;15.21;99.00
11440;BME280;5776;51.814;4.510;2023-05-14T00:55:22;102079.63;;;15.23;99.73
11440;BME280;5776;51.814;4.510;2023-05-14T00:57:49;102076.41;;;15.16;98.65
11440;BME280;5776;51.814;4.510;2023-05-14T01:00:16;102075.88;;;15.14;99.57
11440;BME280;5776;51.814;4.510;2023-05-14T01:02:42;102070.91;;;15.16;98.84
11440;BME280;5776;51.814;4.510;2023-05-14T01:05:08;102070.69;;;15.12;99.60
11440;BME280;5776;51.814;4.510;2023-05-14T01:10:25;102069.84;;;15.12;98.85
11440;BME280;5776;51.814;4.510;2023-05-14T01:15:31;102070.44;;;15.09;99.36
11440;BME280;5776;51.814;4.510;2023-05-14T01:18:00;102072.91;;;15.10;99.11
11440;BME280;5776;51.814;4.510;2023-05-14T01:20:28;102075.63;;;15.10;98.76
11440;BME280;5776;51.814;4.510;2023-05-14T01:22:54;102074.81;;;15.10;99.00
11440;BME280;5776;51.814;4.510;2023-05-14T01:25:20;102076.22;;;15.07;98.56
11440;BME280;5776;51.814;4.510;2023-05-14T01:30:39;102072.13;;;15.05;98.69
11440;BME280;5776;51.814;4.510;2023-05-14T01:33:09;102072.94;;;15.05;98.90
11440;BME280;5776;51.814;4.510;2023-05-14T01:35:35;102067.47;;;15.05;98.36
11440;BME280;5776;51.814;4.510;2023-05-14T01:38:06;102063.41;;;15.03;99.53
11440;BME280;5776;51.814;4.510;2023-05-14T01:40:35;102067.28;;;14.97;98.87
11440;BME280;5776;51.814;4.510;2023-05-14T01:43:02;102073.28;;;14.99;99.28
11440;BME280;5776;51.814;4.510;2023-05-14T01:45:29;102057.97;;;14.98;99.03
11440;BME280;5776;51.814;4.510;2023-05-14T01:47:55;102060.19;;;14.96;99.02
11440;BME280;5776;51.814;4.510;2023-05-14T01:50:21;102062.66;;;14.92;99.59
11440;BME280;5776;51.814;4.510;2023-05-14T01:52:48;102060.75;;;14.93;99.57
11440;BME280;5776;51.814;4.510;2023-05-14T01:55:14;102062.38;;;14.94;99.56
11440;BME280;5776;51.814;4.510;2023-05-14T01:57:40;102067.84;;;14.94;99.48
11440;BME280;5776;51.814;4.510;2023-05-14T02:00:06;102054.75;;;14.90;99.11
11440;BME280;5776;51.814;4.510;2023-05-14T02:02:32;102057.81;;;14.84;99.32
11440;BME280;5776;51.814;4.510;2023-05-14T02:04:58;102057.00;;;14.83;99.83
11440;BME280;5776;51.814;4.510;2023-05-14T02:07:24;102056.72;;;14.85;99.60
11440;BME280;5776;51.814;4.510;2023-05-14T02:09:50;102053.16;;;14.84;99.28
11440;BME280;5776;51.814;4.510;2023-05-14T02:12:16;102054.03;;;14.80;98.99
11440;BME280;5776;51.814;4.510;2023-05-14T02:14:42;102049.97;;;14.77;100.00
11440;BME280;5776;51.814;4.510;2023-05-14T02:17:08;102045.84;;;14.80;100.00
11440;BME280;5776;51.814;4.510;2023-05-14T02:19:33;102036.03;;;14.74;100.00
11440;BME280;5776;51.814;4.510;2023-05-14T02:21:59;102037.16;;;14.73;99.27
11440;BME280;5776;51.814;4.510;2023-05-14T02:24:28;102039.63;;;14.69;99.16
11440;BME280;5776;51.814;4.510;2023-05-14T02:26:54;102038.00;;;14.68;99.27
11440;BME280;5776;51.814;4.510;2023-05-14T02:29:20;102040.16;;;14.71;100.00
11440;BME280;5776;51.814;4.510;2023-05-14T02:31:46;102030.34;;;14.70;99.97
11440;BME280;5776;51.814;4.510;2023-05-14T02:34:12;102030.34;;;14.70;99.84
11440;BME280;5776;51.814;4.510;2023-05-14T02:36:38;102030.03;;;14.72;99.95
11440;BME280;5776;51.814;4.510;2023-05-14T02:39:04;102038.22;;;14.72;100.00
11440;BME280;5776;51.814;4.510;2023-05-14T02:41:30;102024.88;;;14.70;99.87
11440;BME280;5776;51.814;4.510;2023-05-14T02:43:56;102024.34;;;14.68;100.00
11440;BME280;5776;51.814;4.510;2023-05-14T02:46:22;102027.66;;;14.65;100.00
11440;BME280;5776;51.814;4.510;2023-05-14T02:48:48;102031.72;;;14.67;100.00
11440;BME280;5776;51.814;4.510;2023-05-14T02:51:14;102030.94;;;14.62;99.44
11440;BME280;5776;51.814;4.510;2023-05-14T02:53:41;102037.50;;;14.61;100.00
11440;BME280;5776;51.814;4.510;2023-05-14T02:56:06;102039.16;;;14.57;100.00
11440;BME280;5776;51.814;4.510;2023-05-14T02:58:32;102032.63;;;14.58;100.00
11440;BME280;5776;51.814;4.510;2023-05-14T03:00:58;102027.72;;;14.55;100.00
11440;BME280;5776;51.814;4.510;2023-05-14T03:03:25;102034.28;;;14.48;100.00
11440;BME280;5776;51.814;4.510;2023-05-14T03:05:51;102033.22;;;14.50;100.00
11440;BME280;5776;51.814;4.510;2023-05-14T03:08:16;102028.25;;;14.52;100.00
11440;BME280;5776;51.814;4.510;2023-05-14T03:10:43;102032.63;;;14.53;100.00
11440;BME280;5776;51.814;4.510;2023-05-14T03:13:09;102026.63;;;14.51;100.00
11440;BME280;5776;51.814;4.510;2023-05-14T03:15:35;102029.63;;;14.49;100.00
11440;BME280;5776;51.814;4.510;2023-05-14T03:18:01;102028.25;;;14.52;100.00
11440;BME280;5776;51.814;4.510;2023-05-14T03:20:26;102025.56;;;14.46;100.00
11440;BME280;5776;51.814;4.510;2023-05-14T03:22:52;102021.75;;;14.47;100.00
11440;BME280;5776;51.814;4.510;2023-05-14T03:25:19;102025.56;;;14.46;100.00
11440;BME280;5776;51.814;4.510;2023-05-14T03:27:45;102019.56;;;14.44;100.00
11440;BME280;5776;51.814;4.510;2023-05-14T03:30:11;102014.97;;;14.40;100.00
11440;BME280;5776;51.814;4.510;2023-05-14T03:32:37;102012.75;;;14.42;100.00
11440;BME280;5776;51.814;4.510;2023-05-14T03:35:04;102009.50;;;14.40;100.00
11440;BME280;5776;51.814;4.510;2023-05-14T03:37:29;102007.31;;;14.37;100.00
11440;BME280;5776;51.814;4.510;2023-05-14T03:39:55;102004.88;;;14.35;100.00
11440;BME280;5776;51.814;4.510;2023-05-14T03:42:21;102015.50;;;14.37;100.00
11440;BME280;5776;51.814;4.510;2023-05-14T03:44:47;102007.63;;;14.35;100.00
11440;BME280;5776;51.814;4.510;2023-05-14T03:47:13;101999.69;;;14.34;100.00
11440;BME280;5776;51.814;4.510;2023-05-14T03:49:39;101996.44;;;14.32;100.00
11440;BME280;5776;51.814;4.510;2023-05-14T03:52:05;101998.06;;;14.33;100.00
11440;BME280;5776;51.814;4.510;2023-05-14T03:54:31;101997.72;;;14.39;100.00
11440;BME280;5776;51.814;4.510;2023-05-14T03:56:57;101999.41;;;14.35;100.00
11440;BME280;5776;51.814;4.510;2023-05-14T03:59:22;101997.25;;;14.32;100.00
11440;BME280;5776;51.814;4.510;2023-05-14T04:01:49;102001.09;;;14.31;100.00
11440;BME280;5776;51.814;4.510;2023-05-14T04:04:15;102003.00;;;14.31;100.00
11440;BME280;5776;51.814;4.510;2023-05-14T04:06:41;101997.81;;;14.29;100.00
11440;BME280;5776;51.814;4.510;2023-05-14T04:09:07;101998.94;;;14.28;100.00
11440;BME280;5776;51.814;4.510;2023-05-14T04:11:33;101998.38;;;14.26;100.00
11440;BME280;5776;51.814;4.510;2023-05-14T04:13:58;101996.47;;;14.26;100.00
11440;BME280;5776;51.814;4.510;2023-05-14T04:16:24;101995.38;;;14.27;100.00
11440;BME280;5776;51.814;4.510;2023-05-14T04:18:50;102007.13;;;14.28;100.00
11440;BME280;5776;51.814;4.510;2023-05-14T04:21:16;101995.13;;;14.24;100.00
11440;BME280;5776;51.814;4.510;2023-05-14T04:23:42;101998.69;;;14.24;100.00
11440;BME280;5776;51.814;4.510;2023-05-14T04:26:08;102003.63;;;14.22;100.00
11440;BME280;5776;51.814;4.510;2023-05-14T04:28:34;102000.59;;;14.24;100.00
11440;BME280;5776;51.814;4.510;2023-05-14T04:31:00;102003.63;;;14.22;100.00
11440;BME280;5776;51.814;4.510;2023-05-14T04:33:26;102005.50;;;14.22;100.00
11440;BME280;5776;51.814;4.510;2023-05-14T04:35:52;102004.16;;;14.19;100.00
11440;BME280;5776;51.814;4.510;2023-05-14T04:38:17;102006.38;;;14.17;100.00
11440;BME280;5776;51.814;4.510;2023-05-14T04:40:43;102011.84;;;14.17;100.00
11440;BME280;5776;51.814;4.510;2023-05-14T04:43:10;102010.47;;;14.20;100.00
11440;BME280;5776;51.814;4.510;2023-05-14T04:45:36;102006.66;;;14.16;100.00
11440;BME280;5776;51.814;4.510;2023-05-14T04:48:03;102003.66;;;14.17;100.00
11440;BME280;5776;51.814;4.510;2023-05-14T04:50:29;102011.28;;;14.20;100.00
11440;BME280;5776;51.814;4.510;2023-05-14T04:52:55;102008.28;;;14.17;100.00
11440;BME280;5776;51.814;4.510;2023-05-14T04:55:21;102003.94;;;14.16;100.00
11440;BME280;5776;51.814;4.510;2023-05-14T04:57:47;102007.22;;;14.13;100.00
11440;BME280;5776;51.814;4.510;2023-05-14T05:00:14;102006.66;;;14.16;100.00
11440;BME280;5776;51.814;4.510;2023-05-14T05:02:40;102003.94;;;14.16;100.00
11440;BME280;5776;51.814;4.510;2023-05-14T05:05:07;102007.19;;;14.18;100.00
11440;BME280;5776;51.814;4.510;2023-05-14T05:07:33;102007.19;;;14.18;100.00
11440;BME280;5776;51.814;4.510;2023-05-14T05:09:59;102014.03;;;14.15;100.00
11440;BME280;5776;51.814;4.510;2023-05-14T05:12:25;102008.84;;;14.14;100.00
11440;BME280;5776;51.814;4.510;2023-05-14T05:14:55;102008.84;;;14.14;100.00
11440;BME280;5776;51.814;4.510;2023-05-14T05:17:22;102011.59;;;14.14;100.00
11440;BME280;5776;51.814;4.510;2023-05-14T05:19:49;102008.31;;;14.12;100.00
11440;BME280;5776;51.814;4.510;2023-05-14T05:22:15;102015.44;;;14.13;100.00
11440;BME280;5776;51.814;4.510;2023-05-14T05:24:41;102021.97;;;14.12;100.00
11440;BME280;5776;51.814;4.510;2023-05-14T05:27:07;102021.47;;;14.10;100.00
11440;BME280;5776;51.814;4.510;2023-05-14T05:29:33;102027.75;;;14.10;100.00
11440;BME280;5776;51.814;4.510;2023-05-14T05:31:59;102018.19;;;14.08;100.00
11440;BME280;5776;51.814;4.510;2023-05-14T05:34:26;102016.00;;;14.10;100.00
11440;BME280;5776;51.814;4.510;2023-05-14T05:36:52;102027.75;;;14.10;100.00
11440;BME280;5776;51.814;4.510;2023-05-14T05:39:18;102028.28;;;14.12;100.00
11440;BME280;5776;51.814;4.510;2023-05-14T05:41:43;102036.16;;;14.14;100.00
11440;BME280;5776;51.814;4.510;2023-05-14T05:44:09;102031.25;;;14.16;100.00
11440;BME280;5776;51.814;4.510;2023-05-14T05:46:35;102028.78;;;14.14;100.00
11440;BME280;5776;51.814;4.510;2023-05-14T05:49:02;102027.97;;;14.14;100.00
11440;BME280;5776;51.814;4.510;2023-05-14T05:51:27;102032.63;;;14.13;100.00
11440;BME280;5776;51.814;4.510;2023-05-14T05:53:53;102025.25;;;14.14;100.00
11440;BME280;5776;51.814;4.510;2023-05-14T05:56:19;102029.91;;;14.13;100.00
11440;BME280;5776;51.814;4.510;2023-05-14T05:58:46;102029.34;;;14.11;100.00
11440;BME280;5776;51.814;4.510;2023-05-14T06:01:12;102026.63;;;14.11;100.00
11440;BME280;5776;51.814;4.510;2023-05-14T06:03:39;102031.81;;;14.13;100.00
11440;BME280;5776;51.814;4.510;2023-05-14T06:06:05;102028.78;;;14.14;100.00
11440;BME280;5776;51.814;4.510;2023-05-14T06:08:31;102044.31;;;14.24;100.00
11440;BME280;5776;51.814;4.510;2023-05-14T06:10:57;102044.31;;;14.24;100.00
11440;BME280;5776;51.814;4.510;2023-05-14T06:13:22;102038.34;;;14.17;100.00
11440;BME280;5776;51.814;4.510;2023-05-14T06:15:48;102039.41;;;14.21;100.00
11440;BME280;5776;51.814;4.510;2023-05-14T06:18:14;102036.41;;;14.22;100.00
11440;BME280;5776;51.814;4.510;2023-05-14T06:20:40;102041.03;;;14.22;100.00
11440;BME280;5776;51.814;4.510;2023-05-14T06:23:06;102036.41;;;14.22;100.00
11440;BME280;5776;51.814;4.510;2023-05-14T06:25:33;102043.22;;;14.25;100.00
11440;BME280;5776;51.814;4.510;2023-05-14T06:27:59;102039.91;;;14.28;100.00
11440;BME280;5776;51.814;4.510;2023-05-14T06:30:24;102046.72;;;14.31;100.00
11440;BME280;5776;51.814;4.510;2023-05-14T06:32:50;102049.72;;;14.29;100.00
11440;BME280;5776;51.814;4.510;2023-05-14T06:35:17;102047.16;;;14.03;100.00
11440;BME280;5776;51.814;4.510;2023-05-14T06:37:44;102047.50;;;13.92;100.00
11440;BME280;5776;51.814;4.510;2023-05-14T06:40:11;102045.63;;;13.87;100.00
11440;BME280;5776;51.814;4.510;2023-05-14T06:42:37;102048.34;;;13.87;100.00
11440;BME280;5776;51.814;4.510;2023-05-14T06:45:04;102047.84;;;13.80;100.00
11440;BME280;5776;51.814;4.510;2023-05-14T06:47:30;102047.88;;;13.75;100.00
11440;BME280;5776;51.814;4.510;2023-05-14T06:49:56;102050.88;;;13.73;100.00
11440;BME280;5776;51.814;4.510;2023-05-14T06:52:23;102056.84;;;13.80;100.00
11440;BME280;5776;51.814;4.510;2023-05-14T06:54:49;102056.03;;;13.80;100.00
11440;BME280;5776;51.814;4.510;2023-05-14T06:57:15;102052.13;;;13.91;100.00
11440;BME280;5776;51.814;4.510;2023-05-14T06:59:41;102050.53;;;13.85;100.00
11440;BME280;5776;51.814;4.510;2023-05-14T07:02:07;102052.72;;;13.88;100.00
11440;BME280;5776;51.814;4.510;2023-05-14T07:04:33;102049.97;;;13.88;100.00
11440;BME280;5776;51.814;4.510;2023-05-14T07:06:59;102052.69;;;13.93;100.00
11440;BME280;5776;51.814;4.510;2023-05-14T07:09:25;102058.94;;;13.99;100.00
11440;BME280;5776;51.814;4.510;2023-05-14T07:11:50;102044.19;;;14.00;100.00
11440;BME280;5776;51.814;4.510;2023-05-14T07:14:16;102050.41;;;14.11;100.00
11440;BME280;5776;51.814;4.510;2023-05-14T07:16:42;102046.75;;;14.25;100.00
11440;BME280;5776;51.814;4.510;2023-05-14T07:19:08;102037.69;;;14.35;100.00
11440;BME280;5776;51.814;4.510;2023-05-14T07:21:34;102035.19;;;14.39;100.00
11440;BME280;5776;51.814;4.510;2023-05-14T07:24:00;102039.25;;;14.41;100.00
11440;BME280;5776;51.814;4.510;2023-05-14T07:26:26;102040.91;;;14.42;100.00
11440;BME280;5776;51.814;4.510;2023-05-14T07:28:52;102036.25;;;14.43;100.00
11440;BME280;5776;51.814;4.510;2023-05-14T07:31:18;102039.53;;;14.45;100.00
11440;BME280;5776;51.814;4.510;2023-05-14T07:33:44;102032.94;;;14.46;100.00
11440;BME280;5776;51.814;4.510;2023-05-14T07:36:10;102028.00;;;14.48;100.00
11440;BME280;5776;51.814;4.510;2023-05-14T07:38:36;102034.28;;;14.48;100.00
11440;BME280;5776;51.814;4.510;2023-05-14T07:41:03;102025.00;;;14.50;100.00
11440;BME280;5776;51.814;4.510;2023-05-14T07:43:29;102029.91;;;14.53;100.00
11440;BME280;5776;51.814;4.510;2023-05-14T07:45:55;102030.75;;;14.53;100.00
11440;BME280;5776;51.814;4.510;2023-05-14T07:48:21;102025.28;;;14.53;100.00
11440;BME280;5776;51.814;4.510;2023-05-14T07:50:48;102025.28;;;14.53;100.00
11440;BME280;5776;51.814;4.510;2023-05-14T07:53:13;102028.53;;;14.55;100.00
11440;BME280;5776;51.814;4.510;2023-05-14T07:55:40;102025.50;;;14.57;100.00
11440;BME280;5776;51.814;4.510;2023-05-14T07:58:20;102028.78;;;14.59;100.00
11440;BME280;5776;51.814;4.510;2023-05-14T08:00:46;102030.41;;;14.60;100.00
11440;BME280;5776;51.814;4.510;2023-05-14T08:03:12;102024.13;;;14.59;100.00
11440;BME280;5776;51.814;4.510;2023-05-14T08:05:38;102031.22;;;14.60;100.00
11440;BME280;5776;51.814;4.510;2023-05-14T08:08:04;102026.00;;;14.64;100.00
11440;BME280;5776;51.814;4.510;2023-05-14T08:10:30;102027.66;;;14.65;100.00
11440;BME280;5776;51.814;4.510;2023-05-14T08:12:56;102036.66;;;14.65;100.00
11440;BME280;5776;51.814;4.510;2023-05-14T08:15:22;102034.72;;;14.66;100.00
11440;BME280;5776;51.814;4.510;2023-05-14T08:17:48;102036.06;;;14.68;100.00
11440;BME280;5776;51.814;4.510;2023-05-14T08:20:14;102033.06;;;14.70;100.00
11440;BME280;5776;51.814;4.510;2023-05-14T08:22:40;102034.16;;;14.69;100.00
11440;BME280;5776;51.814;4.510;2023-05-14T08:25:07;102023.75;;;14.71;100.00
11440;BME280;5776;51.814;4.510;2023-05-14T08:27:32;102030.28;;;14.75;100.00
11440;BME280;5776;51.814;4.510;2023-05-14T08:29:58;102034.63;;;14.76;100.00
11440;BME280;5776;51.814;4.510;2023-05-14T08:32:24;102039.03;;;14.77;100.00
11440;BME280;5776;51.814;4.510;2023-05-14T08:34:50;102038.72;;;14.79;100.00
11440;BME280;5776;51.814;4.510;2023-05-14T08:37:16;102032.97;;;14.80;100.00
11440;BME280;5776;51.814;4.510;2023-05-14T08:39:42;102033.50;;;14.82;100.00
11440;BME280;5776;51.814;4.510;2023-05-14T08:42:11;102024.13;;;14.88;100.00
11440;BME280;5776;51.814;4.510;2023-05-14T08:44:47;102022.47;;;14.93;100.00
11440;BME280;5776;51.814;4.510;2023-05-14T08:47:14;102016.09;;;14.97;100.00
11440;BME280;5776;51.814;4.510;2023-05-14T08:49:42;102010.84;;;15.06;100.00
11440;BME280;5776;51.814;4.510;2023-05-14T08:52:10;102010.78;;;15.11;100.00
11440;BME280;5776;51.814;4.510;2023-05-14T08:54:36;102009.91;;;15.16;100.00
11440;BME280;5776;51.814;4.510;2023-05-14T08:57:03;102000.84;;;15.20;100.00
11440;BME280;5776;51.814;4.510;2023-05-14T08:59:29;101999.06;;;15.29;100.00
11440;BME280;5776;51.814;4.510;2023-05-14T09:01:57;101994.66;;;15.33;100.00
11440;BME280;5776;51.814;4.510;2023-05-14T09:04:26;101993.25;;;15.36;100.00
11440;BME280;5776;51.814;4.510;2023-05-14T09:06:53;101990.16;;;15.43;100.00
11440;BME280;5776;51.814;4.510;2023-05-14T09:09:21;101993.59;;;15.53;100.00
11440;BME280;5776;51.814;4.510;2023-05-14T09:11:51;101994.41;;;15.54;100.00
11440;BME280;5776;51.814;4.510;2023-05-14T09:14:18;101985.38;;;15.53;100.00
11440;BME280;5776;51.814;4.510;2023-05-14T09:16:45;101983.09;;;15.61;100.00
11440;BME280;5776;51.814;4.510;2023-05-14T09:19:12;101981.16;;;15.61;100.00
11440;BME280;5776;51.814;4.510;2023-05-14T09:21:39;101977.63;;;15.61;100.00
11440;BME280;5776;51.814;4.510;2023-05-14T09:24:05;101984.97;;;15.65;100.00
11440;BME280;5776;51.814;4.510;2023-05-14T09:26:32;101985.44;;;15.72;100.00
11440;BME280;5776;51.814;4.510;2023-05-14T09:28:59;101975.81;;;15.75;100.00
11440;BME280;5776;51.814;4.510;2023-05-14T09:31:30;101966.19;;;15.77;100.00
11440;BME280;5776;51.814;4.510;2023-05-14T09:33:57;101971.97;;;15.76;100.00
11440;BME280;5776;51.814;4.510;2023-05-14T09:36:24;101969.16;;;15.81;100.00
11440;BME280;5776;51.814;4.510;2023-05-14T09:38:55;101966.34;;;15.86;100.00
11440;BME280;5776;51.814;4.510;2023-05-14T09:41:20;101965.97;;;15.93;100.00
11440;BME280;5776;51.814;4.510;2023-05-14T09:43:49;101965.13;;;15.92;100.00
11440;BME280;5776;51.814;4.510;2023-05-14T09:46:16;101965.38;;;15.96;100.00
11440;BME280;5776;51.814;4.510;2023-05-14T09:48:42;101962.84;;;15.99;100.00
11440;BME280;5776;51.814;4.510;2023-05-14T09:51:09;101973.97;;;16.08;100.00
11440;BME280;5776;51.814;4.510;2023-05-14T09:53:36;101969.56;;;16.07;100.00
11440;BME280;5776;51.814;4.510;2023-05-14T09:56:02;101974.97;;;16.12;100.00
11440;BME280;5776;51.814;4.510;2023-05-14T09:58:28;101973.78;;;16.18;100.00
11440;BME280;5776;51.814;4.510;2023-05-14T10:00:56;101969.66;;;16.21;100.00
11440;BME280;5776;51.814;4.510;2023-05-14T10:03:24;101964.88;;;16.27;100.00
11440;BME280;5776;51.814;4.510;2023-05-14T10:05:51;101970.38;;;16.27;100.00
11440;BME280;5776;51.814;4.510;2023-05-14T10:08:26;101961.63;;;16.25;100.00
11440;BME280;5776;51.814;4.510;2023-05-14T10:10:54;101960.53;;;16.26;100.00
11440;BME280;5776;51.814;4.510;2023-05-14T10:13:22;101959.84;;;16.34;100.00
11440;BME280;5776;51.814;4.510;2023-05-14T10:15:57;101961.16;;;16.36;100.00
11440;BME280;5776;51.814;4.510;2023-05-14T10:18:30;101953.16;;;16.40;100.00
11440;BME280;5776;51.814;4.510;2023-05-14T10:21:02;101951.72;;;16.42;100.00
11440;BME280;5776;51.814;4.510;2023-05-14T10:23:29;101946.47;;;16.46;100.00
11440;BME280;5776;51.814;4.510;2023-05-14T10:25:57;101950.03;;;16.47;100.00
11440;BME280;5776;51.814;4.510;2023-05-14T10:28:23;101944.78;;;16.50;100.00
11440;BME280;5776;51.814;4.510;2023-05-14T10:30:50;101939.69;;;16.57;100.00
11440;BME280;5776;51.814;4.510;2023-05-14T10:33:16;101947.31;;;16.60;100.00
11440;BME280;5776;51.814;4.510;2023-05-14T10:36:04;101942.31;;;16.62;100.00
11440;BME280;5776;51.814;4.510;2023-05-14T10:38:35;101938.38;;;16.69;100.00
11440;BME280;5776;51.814;4.510;2023-05-14T10:41:02;101926.28;;;16.70;100.00
11440;BME280;5776;51.814;4.510;2023-05-14T10:43:29;101936.69;;;16.73;100.00
11440;BME280;5776;51.814;4.510;2023-05-14T10:45:56;101932.19;;;16.77;100.00
11440;BME280;5776;51.814;4.510;2023-05-14T10:48:23;101932.34;;;16.86;100.00
11440;BME280;5776;51.814;4.510;2023-05-14T10:50:50;101933.97;;;16.87;100.00
11440;BME280;5776;51.814;4.510;2023-05-14T10:53:17;101927.56;;;16.91;100.00
11440;BME280;5776;51.814;4.510;2023-05-14T10:55:44;101922.09;;;16.91;100.00
11440;BME280;5776;51.814;4.510;2023-05-14T10:58:10;101915.97;;;16.94;100.00
11440;BME280;5776;51.814;4.510;2023-05-14T11:00:37;101922.38;;;17.03;100.00
11440;BME280;5776;51.814;4.510;2023-05-14T11:03:05;101924.00;;;17.04;100.00
11440;BME280;5776;51.814;4.510;2023-05-14T11:05:32;101916.81;;;17.09;100.00
11440;BME280;5776;51.814;4.510;2023-05-14T11:07:58;101909.88;;;17.11;100.00
11440;BME280;5776;51.814;4.510;2023-05-14T11:10:24;101906.81;;;17.13;100.00
11440;BME280;5776;51.814;4.510;2023-05-14T11:12:51;101905.09;;;17.17;100.00
11440;BME280;5776;51.814;4.510;2023-05-14T11:15:19;101907.72;;;17.22;100.00
11440;BME280;5776;51.814;4.510;2023-05-14T11:17:46;101897.25;;;17.24;100.00
11440;BME280;5776;51.814;4.510;2023-05-14T11:20:13;101900.19;;;17.27;100.00
11440;BME280;5776;51.814;4.510;2023-05-14T11:22:40;101894.91;;;17.31;100.00
11440;BME280;5776;51.814;4.510;2023-05-14T11:25:06;101895.91;;;17.35;100.00
11440;BME280;5776;51.814;4.510;2023-05-14T11:27:35;101894.59;;;17.33;100.00
11440;BME280;5776;51.814;4.510;2023-05-14T11:30:01;101896.13;;;17.39;100.00
11440;BME280;5776;51.814;4.510;2023-05-14T11:32:30;101893.25;;;17.44;100.00
11440;BME280;5776;51.814;4.510;2023-05-14T11:34:57;101891.31;;;17.44;100.00
11440;BME280;5776;51.814;4.510;2023-05-14T11:37:23;101887.44;;;17.45;100.00
11440;BME280;5776;51.814;4.510;2023-05-14T11:39:50;101889.06;;;17.46;100.00
11440;BME280;5776;51.814;4.510;2023-05-14T11:42:17;101887.03;;;17.52;100.00
11440;BME280;5776;51.814;4.510;2023-05-14T11:44:51;101887.72;;;17.58;100.00
11440;BME280;5776;51.814;4.510;2023-05-14T11:47:18;101882.53;;;17.56;100.00
11440;BME280;5776;51.814;4.510;2023-05-14T11:49:45;101880.31;;;17.58;100.00
11440;BME280;5776;51.814;4.510;2023-05-14T11:52:13;101883.91;;;17.67;100.00
11440;BME280;5776;51.814;4.510;2023-05-14T11:54:43;101878.41;;;17.67;100.00
11440;BME280;5776;51.814;4.510;2023-05-14T11:57:15;101881.88;;;17.73;100.00
11440;BME280;5776;51.814;4.510;2023-05-14T11:59:42;101876.38;;;17.73;100.00
11440;BME280;5776;51.814;4.510;2023-05-14T12:02:13;101868.75;;;17.70;100.00
11440;BME280;5776;51.814;4.510;2023-05-14T12:04:40;101871.69;;;17.74;100.00
11440;BME280;5776;51.814;4.510;2023-05-14T12:07:09;101873.00;;;17.76;99.91
11440;BME280;5776;51.814;4.510;2023-05-14T12:09:37;101871.28;;;17.80;100.00
11440;BME280;5776;51.814;4.510;2023-05-14T12:12:10;101867.09;;;17.83;100.00
11440;BME280;5776;51.814;4.510;2023-05-14T12:14:39;101861.47;;;17.88;100.00
11440;BME280;5776;51.814;4.510;2023-05-14T12:17:19;101857.78;;;17.92;100.00
11440;BME280;5776;51.814;4.510;2023-05-14T12:19:49;101856.97;;;17.92;100.00
11440;BME280;5776;51.814;4.510;2023-05-14T12:22:17;101857.03;;;17.78;100.00
11440;BME280;5776;51.814;4.510;2023-05-14T12:24:52;101857.25;;;17.68;100.00
11440;BME280;5776;51.814;4.510;2023-05-14T12:27:23;101862.28;;;17.66;100.00
11440;BME280;5776;51.814;4.510;2023-05-14T12:29:50;101858.69;;;17.65;100.00
11440;BME280;5776;51.814;4.510;2023-05-14T12:32:24;101850.44;;;17.65;100.00
11440;BME280;5776;51.814;4.510;2023-05-14T12:34:50;101848.31;;;17.62;100.00
11440;BME280;5776;51.814;4.510;2023-05-14T12:37:16;101843.97;;;17.61;100.00
11440;BME280;5776;51.814;4.510;2023-05-14T12:39:43;101849.47;;;17.61;100.00
11440;BME280;5776;51.814;4.510;2023-05-14T12:42:09;101843.50;;;17.68;100.00
11440;BME280;5776;51.814;4.510;2023-05-14T12:44:35;101846.25;;;17.82;100.00
11440;BME280;5776;51.814;4.510;2023-05-14T12:47:00;101842.94;;;17.94;100.00
11440;BME280;5776;51.814;4.510;2023-05-14T12:49:26;101839.56;;;17.97;99.64
11440;BME280;5776;51.814;4.510;2023-05-14T12:51:52;101839.44;;;18.02;99.97
11440;BME280;5776;51.814;4.510;2023-05-14T12:54:18;101832.19;;;18.06;99.77
11440;BME280;5776;51.814;4.510;2023-05-14T12:56:44;101832.66;;;18.08;99.26
11440;BME280;5776;51.814;4.510;2023-05-14T12:59:10;101836.72;;;18.10;99.45